Time;durP1;ratioP1;P1;durP2;ratioP2;P2;SDS_P1;SDS_P2;PMS_P1;PMS_P2;Temp;Humidity;BMP_temperature;BMP_pressure;BME280_temperature;BME280_humidity;BME280_pressure;Samples;Min_cycle;Max_cycle;Signal;HPM_P1;HPM_P2
2022/04/26 03:37:29;;;;;;;11.75;5.35;;;;;;;8.34;84.48;101685.97;5016340;28;20148;-46
2022/04/26 03:39:55;;;;;;;15.55;5.43;;;;;;;8.48;83.86;101682.88;5016136;28;20026;-47
2022/04/26 03:42:20;;;;;;;13.15;5.90;;;;;;;8.59;84.27;101676.66;5015531;28;20030;-47
2022/04/26 03:44:46;;;;;;;13.65;5.57;;;;;;;8.44;83.85;101680.78;5015531;28;20037;-47
2022/04/26 03:47:11;;;;;;;16.13;6.15;;;;;;;8.29;85.19;101681.28;5015830;28;20100;-47
2022/04/26 03:49:37;;;;;;;14.73;5.57;;;;;;;8.43;84.68;101684.28;5015461;28;20021;-47
2022/04/26 03:52:02;;;;;;;14.82;5.28;;;;;;;8.35;84.46;101687.59;5015479;28;20461;-46
2022/04/26 03:54:28;;;;;;;15.63;5.78;;;;;;;8.40;84.58;101690.56;5015338;28;20026;-47
2022/04/26 03:56:53;;;;;;;15.48;5.90;;;;;;;8.38;84.25;101687.28;5015348;28;20022;-47
2022/04/26 03:59:19;;;;;;;15.30;5.90;;;;;;;8.43;84.52;101687.69;5014468;28;20053;-47
2022/04/26 04:01:45;;;;;;;12.23;5.50;;;;;;;8.52;83.51;101684.22;5015270;28;20462;-47
2022/04/26 04:04:10;;;;;;;12.63;5.50;;;;;;;8.41;83.36;101688.78;5015175;28;20034;-47
2022/04/26 04:06:35;;;;;;;13.80;5.13;;;;;;;8.41;83.66;101689.59;5015043;28;20022;-55
2022/04/26 04:09:00;;;;;;;16.83;5.50;;;;;;;8.38;84.26;101692.44;5015092;28;20400;-46
2022/04/26 04:11:25;;;;;;;14.68;5.45;;;;;;;8.31;83.82;101691.41;5015872;28;20029;-46
2022/04/26 04:13:51;;;;;;;14.93;5.80;;;;;;;8.35;83.36;101682.44;5014986;28;20054;-46
2022/04/26 04:16:16;;;;;;;14.30;5.60;;;;;;;8.40;83.43;101695.72;5014902;28;20037;-47
2022/04/26 04:21:25;;;;;;;12.88;5.43;;;;;;;8.44;82.69;101696.22;5015521;28;20464;-46
2022/04/26 04:23:50;;;;;;;13.07;4.88;;;;;;;8.43;83.65;101698.00;5014909;28;20057;-46
2022/04/26 04:26:15;;;;;;;12.95;5.65;;;;;;;8.51;83.26;101697.22;5014771;28;20029;-45
2022/04/26 04:28:41;;;;;;;10.05;5.18;;;;;;;8.57;82.05;101705.19;5015224;28;20037;-46
2022/04/26 04:31:08;;;;;;;16.23;5.97;;;;;;;8.47;82.32;101703.66;5014566;28;20022;-44
2022/04/26 04:33:33;;;;;;;11.20;5.15;;;;;;;8.39;82.43;101701.81;5014700;28;20037;-46
2022/04/26 04:35:58;;;;;;;15.63;5.97;;;;;;;8.45;82.75;101711.50;5014099;28;20022;-47
2022/04/26 04:38:26;;;;;;;9.60;5.20;;;;;;;8.47;82.93;101704.44;5013773;28;20029;-46
2022/04/26 04:40:51;;;;;;;11.02;5.20;;;;;;;8.51;82.87;101708.34;5014702;28;20033;-46
2022/04/26 04:43:16;;;;;;;10.73;5.57;;;;;;;8.49;82.41;101712.84;5014752;28;20030;-46
2022/04/26 04:45:42;;;;;;;11.05;5.43;;;;;;;8.50;82.40;101718.81;5014478;28;20123;-46
2022/04/26 04:48:08;;;;;;;11.88;5.07;;;;;;;8.46;82.73;101715.72;5014670;28;20026;-46
2022/04/26 04:50:34;;;;;;;9.63;4.85;;;;;;;8.52;82.32;101719.47;5014337;28;20057;-46
2022/04/26 04:52:59;;;;;;;11.25;5.50;;;;;;;8.52;83.53;101725.44;5014311;28;20491;-51
2022/04/26 04:55:25;;;;;;;12.00;5.35;;;;;;;8.58;82.35;101732.56;5014363;28;20033;-46
2022/04/26 04:57:50;;;;;;;15.60;5.20;;;;;;;8.43;82.29;101736.63;5014289;28;20030;-46
2022/04/26 05:00:15;;;;;;;14.25;5.40;;;;;;;8.51;82.67;101744.41;5014472;28;20034;-45
2022/04/26 05:02:41;;;;;;;12.98;4.78;;;;;;;8.54;82.53;101746.69;5014126;28;20025;-46
2022/04/26 05:05:06;;;;;;;16.13;4.90;;;;;;;8.47;82.84;101748.25;5014187;28;20064;-47
2022/04/26 05:07:32;;;;;;;12.73;4.50;;;;;;;8.62;82.20;101748.50;5013985;28;20450;-47
2022/04/26 05:09:57;;;;;;;14.60;4.93;;;;;;;8.56;82.21;101738.81;5014273;28;20022;-47
2022/04/26 05:12:23;;;;;;;11.68;5.00;;;;;;;8.68;81.99;101752.25;5013967;28;20029;-46
2022/04/26 05:14:48;;;;;;;9.52;4.75;;;;;;;8.61;82.13;101749.47;4996361;28;20390;-47
2022/04/26 05:17:13;;;;;;;12.63;4.95;;;;;;;8.57;82.15;101754.13;5014740;28;20029;-46
2022/04/26 05:19:38;;;;;;;12.18;4.72;;;;;;;8.59;81.84;101762.50;5013878;28;20117;-46
2022/04/26 05:22:08;;;;;;;14.60;5.00;;;;;;;8.55;81.93;101758.63;5013958;28;20029;-46
2022/04/26 05:27:22;;;;;;;10.85;4.40;;;;;;;8.86;81.15;101758.19;5014878;28;20409;-47
2022/04/26 05:29:47;;;;;;;11.98;5.10;;;;;;;8.99;80.57;101768.91;5013769;28;20025;-46
2022/04/26 05:32:12;;;;;;;12.40;4.15;;;;;;;9.02;80.81;101768.59;5014196;28;20033;-47
2022/04/26 05:34:38;;;;;;;10.93;4.60;;;;;;;9.08;79.75;101777.50;5013624;28;20101;-46
2022/04/26 05:37:03;;;;;;;16.30;4.30;;;;;;;9.02;80.60;101775.53;5013982;28;20033;-47
2022/04/26 05:39:28;;;;;;;16.88;4.30;;;;;;;8.94;79.90;101784.00;5013482;28;20026;-47
2022/04/26 05:41:54;;;;;;;13.48;4.13;;;;;;;9.01;79.97;101782.44;5013660;28;20113;-48
2022/04/26 05:44:19;;;;;;;12.82;4.28;;;;;;;8.92;80.39;101779.94;5013474;28;20535;-46
2022/04/26 05:46:44;;;;;;;17.52;4.32;;;;;;;9.01;80.12;101792.75;5013772;28;20018;-46
2022/04/26 05:49:09;;;;;;;14.80;4.40;;;;;;;8.82;79.96;101775.72;5013542;28;20022;-48
2022/04/26 05:51:34;;;;;;;15.00;4.25;;;;;;;8.74;80.68;101782.56;5013715;28;20037;-46
2022/04/26 05:54:00;;;;;;;14.63;4.38;;;;;;;8.96;80.43;101789.03;4996415;28;20344;-47
2022/04/26 05:56:25;;;;;;;14.50;4.28;;;;;;;9.15;79.38;101795.72;5013367;28;20053;-46
2022/04/26 05:58:50;;;;;;;13.55;4.38;;;;;;;8.96;80.10;101786.44;4996061;28;20092;-46
2022/04/26 06:01:15;;;;;;;15.10;4.15;;;;;;;9.01;79.99;101791.97;5013551;28;20026;-47
2022/04/26 06:03:41;;;;;;;10.55;4.22;;;;;;;8.97;79.80;101794.00;5013812;28;20511;-44
2022/04/26 06:06:06;;;;;;;13.10;4.25;;;;;;;9.04;79.97;101791.66;5012900;28;20026;-45
2022/04/26 06:08:31;;;;;;;19.13;4.20;;;;;;;8.88;79.29;101794.91;5012019;28;20022;-45
2022/04/26 06:10:57;;;;;;;14.45;4.18;;;;;;;8.98;80.20;101805.16;5013515;28;20037;-47
2022/04/26 06:13:22;;;;;;;17.95;3.67;;;;;;;8.82;80.30;101803.25;5013188;28;20445;-46
2022/04/26 06:15:47;;;;;;;19.00;4.00;;;;;;;8.71;80.16;101809.44;5013172;28;20045;-47
2022/04/26 06:18:12;;;;;;;12.20;3.30;;;;;;;8.86;79.50;101803.75;5013179;28;20069;-48
2022/04/26 06:20:38;;;;;;;13.95;3.95;;;;;;;9.02;79.35;101806.47;5013376;28;20381;-47
2022/04/26 06:23:03;;;;;;;13.30;3.90;;;;;;;9.00;79.28;101806.59;5015267;28;20113;-45
2022/04/26 06:25:28;;;;;;;9.68;3.55;;;;;;;8.79;79.45;101812.09;4998271;28;20030;-46
2022/04/26 06:27:54;;;;;;;15.57;3.58;;;;;;;8.92;79.18;101811.72;5013494;28;20030;-45
2022/04/26 06:30:19;;;;;;;16.85;4.13;;;;;;;9.07;78.88;101811.19;5017120;28;20100;-48
2022/04/26 06:32:44;;;;;;;10.63;3.50;;;;;;;8.97;78.01;101816.41;5015864;28;20022;-46
2022/04/26 06:35:10;;;;;;;9.98;3.75;;;;;;;8.98;78.66;101818.03;5016026;28;20326;-46
2022/04/26 06:37:36;;;;;;;9.23;3.63;;;;;;;8.91;78.85;101817.81;5016018;28;20030;-46
2022/04/26 06:40:02;;;;;;;17.63;4.30;;;;;;;8.78;78.68;101812.25;5015843;28;20727;-46
2022/04/26 06:42:27;;;;;;;13.75;3.60;;;;;;;8.83;78.40;101815.19;5016059;28;20042;-46
2022/04/26 06:44:52;;;;;;;14.38;3.80;;;;;;;9.12;77.41;101820.06;5016001;28;20030;-46
2022/04/26 06:47:17;;;;;;;12.38;3.70;;;;;;;9.19;76.59;101823.66;5016798;28;20471;-46
2022/04/26 06:49:43;;;;;;;13.63;4.43;;;;;;;9.29;76.98;101839.00;5015372;28;20013;-47
2022/04/26 06:52:08;;;;;;;13.15;3.85;;;;;;;9.55;76.24;101831.28;5016014;28;20028;-46
2022/04/26 06:54:33;;;;;;;12.88;3.65;;;;;;;9.47;75.40;101847.53;5014498;28;20094;-45
2022/04/26 06:56:58;;;;;;;9.77;3.60;;;;;;;9.40;75.42;101848.28;5017157;28;20405;-48
2022/04/26 06:59:24;;;;;;;13.52;3.47;;;;;;;9.81;73.98;101835.56;5017008;28;20318;-48
2022/04/26 07:01:52;;;;;;;9.25;3.33;;;;;;;10.03;72.61;101845.31;4998781;28;20030;-46
2022/04/26 07:04:19;;;;;;;17.67;3.65;;;;;;;14.35;56.73;101842.16;5016909;28;20412;-45
2022/04/26 07:06:45;;;;;;;10.93;3.67;;;;;;;17.02;51.43;101850.91;5016380;28;20029;-46
2022/04/26 07:09:10;;;;;;;10.10;3.42;;;;;;;16.00;51.12;101846.81;5017141;28;20033;-43
2022/04/26 07:11:36;;;;;;;10.00;3.50;;;;;;;19.81;42.25;101846.28;4998426;28;20526;-45
2022/04/26 07:14:01;;;;;;;12.23;3.33;;;;;;;21.28;38.60;101838.66;5015169;28;20077;-45
2022/04/26 07:16:27;;;;;;;10.55;3.20;;;;;;;22.72;36.93;101842.72;5014856;28;20033;-45
2022/04/26 07:18:52;;;;;;;7.45;3.20;;;;;;;22.79;35.72;101840.72;5015977;28;20083;-46
2022/04/26 07:21:18;;;;;;;9.52;3.00;;;;;;;22.62;34.91;101848.66;5014821;28;20021;-45
2022/04/26 07:23:43;;;;;;;8.85;3.10;;;;;;;21.73;35.53;101856.38;5015439;28;20407;-47
2022/04/26 07:26:08;;;;;;;12.57;2.90;;;;;;;21.53;36.80;101851.53;5015640;28;20104;-45
2022/04/26 07:28:34;;;;;;;9.57;3.17;;;;;;;22.07;35.65;101847.50;5016654;28;20201;-46
2022/04/26 07:30:59;;;;;;;6.70;2.65;;;;;;;22.92;34.23;101848.25;5015978;28;20040;-45
2022/04/26 07:36:09;;;;;;;7.95;3.17;;;;;;;20.68;37.94;101858.13;5015592;28;20500;-45
2022/04/26 07:38:35;;;;;;;9.25;3.33;;;;;;;21.13;37.25;101860.97;5015761;28;20026;-45
2022/04/26 07:41:01;;;;;;;9.90;3.13;;;;;;;22.13;34.91;101858.91;5015755;28;20038;-45
2022/04/26 07:43:26;;;;;;;7.35;3.05;;;;;;;23.17;34.37;101847.81;5015655;28;20025;-46
2022/04/26 07:45:51;;;;;;;10.10;3.13;;;;;;;22.24;34.21;101859.91;5015533;28;20057;-47
2022/04/26 07:48:17;;;;;;;10.00;3.25;;;;;;;22.98;33.16;101855.22;5015559;28;20113;-45
2022/04/26 07:50:47;;;;;;;8.77;2.92;;;;;;;21.89;34.81;101858.22;5015420;28;20018;-45
2022/04/26 07:53:12;;;;;;;9.70;3.10;;;;;;;20.51;36.61;101853.53;4997925;28;20491;-45
2022/04/26 07:55:38;;;;;;;8.43;3.10;;;;;;;20.12;37.51;101857.56;5015601;28;20029;-45
2022/04/26 07:58:04;;;;;;;9.75;3.28;;;;;;;18.95;39.52;101862.97;5015535;28;20052;-46
2022/04/26 08:00:30;;;;;;;10.23;3.50;;;;;;;18.25;41.46;101858.66;5015439;28;20121;-46
2022/04/26 08:02:55;;;;;;;12.70;3.50;;;;;;;17.80;43.31;101858.72;4997803;28;20104;-45
2022/04/26 08:05:21;;;;;;;9.38;3.47;;;;;;;18.15;43.55;101860.13;5015477;28;20032;-45
2022/04/26 08:07:48;;;;;;;9.13;3.20;;;;;;;16.77;45.42;101869.00;5015099;28;20026;-46
2022/04/26 08:10:13;;;;;;;7.70;3.05;;;;;;;16.49;46.77;101879.63;5015020;28;20026;-45
2022/04/26 08:12:40;;;;;;;10.50;3.30;;;;;;;15.35;48.82;101875.78;5015601;28;20034;-45
2022/04/26 08:15:06;;;;;;;7.85;3.05;;;;;;;14.57;49.84;101888.00;5015121;28;20119;-45
2022/04/26 08:17:32;;;;;;;9.38;3.63;;;;;;;15.51;48.12;101886.91;5015183;28;20469;-44
2022/04/26 08:19:57;;;;;;;13.98;3.45;;;;;;;15.19;48.26;101888.28;5014684;28;20065;-45
2022/04/26 08:22:23;;;;;;;5.95;2.90;;;;;;;15.05;49.31;101888.22;5015109;28;20080;-46
2022/04/26 08:27:33;;;;;;;8.07;3.10;;;;;;;16.64;46.34;101901.09;5015388;28;20045;-45
2022/04/26 08:30:00;;;;;;;10.48;3.08;;;;;;;15.57;47.06;101892.13;5014951;28;20018;-44
2022/04/26 08:32:29;;;;;;;12.23;2.92;;;;;;;16.15;47.03;101896.19;5015431;28;20030;-49
2022/04/26 08:34:54;;;;;;;6.82;2.92;;;;;;;15.91;46.16;101892.28;5014837;28;20029;-48
2022/04/26 08:37:20;;;;;;;8.40;3.30;;;;;;;16.13;45.88;101893.78;5014702;28;20526;-46
2022/04/26 08:39:48;;;;;;;9.07;2.90;;;;;;;14.85;48.09;101901.06;5014785;28;20050;-45
2022/04/26 08:42:14;;;;;;;6.78;3.20;;;;;;;15.72;47.80;101904.25;5014525;28;20080;-46
2022/04/26 08:44:40;;;;;;;7.97;3.08;;;;;;;15.36;46.95;101913.03;5015219;28;20349;-45
2022/04/26 08:52:50;;;;;;;8.57;3.08;;;;;;;15.68;50.17;101903.84;5015123;28;20068;-45
2022/04/26 08:55:16;;;;;;;13.70;3.33;;;;;;;16.74;47.41;101913.72;5014577;28;20033;-45
2022/04/26 08:57:42;;;;;;;9.07;3.15;;;;;;;16.57;46.16;101913.34;5014329;28;20039;-47
2022/04/26 09:00:11;;;;;;;9.20;3.25;;;;;;;15.44;47.44;101919.91;5015281;28;20064;-45
2022/04/26 09:02:38;;;;;;;9.10;3.38;;;;;;;15.96;45.76;101914.16;5014645;28;20426;-46
2022/04/26 09:05:12;;;;;;;8.65;3.13;;;;;;;15.94;47.22;101913.59;5014497;28;20385;-45
2022/04/26 09:07:40;;;;;;;7.13;2.92;;;;;;;16.39;46.45;101923.53;5013999;28;20038;-45
2022/04/26 09:10:11;;;;;;;7.22;3.00;;;;;;;16.64;46.05;101929.00;5014817;28;20139;-44
2022/04/26 09:13:01;;;;;;;7.43;3.08;;;;;;;16.01;47.30;101931.84;5014161;28;20406;-46
2022/04/26 09:15:33;;;;;;;11.85;3.55;;;;;;;16.83;45.88;101932.66;5013623;28;20073;-45
2022/04/26 09:18:13;;;;;;;4.85;2.88;;;;;;;16.90;46.03;101933.47;4997034;28;20044;-45
2022/04/26 09:20:39;;;;;;;9.10;3.10;;;;;;;16.89;43.48;101937.09;5013905;28;20025;-46
2022/04/26 09:23:14;;;;;;;6.05;2.90;;;;;;;17.19;43.13;101928.84;5013717;28;20041;-45
2022/04/26 09:25:39;;;;;;;7.80;3.20;;;;;;;16.22;45.09;101928.28;5012569;28;20018;-45
2022/04/26 09:28:06;;;;;;;6.60;2.70;;;;;;;16.28;45.88;101934.53;5013997;28;20350;-45
2022/04/26 09:30:32;;;;;;;10.73;2.90;;;;;;;16.82;46.09;101929.22;5013952;28;20369;-47
2022/04/26 09:32:58;;;;;;;8.23;3.00;;;;;;;16.59;44.63;101932.19;5014071;28;20036;-46
2022/04/26 09:35:29;;;;;;;7.55;2.97;;;;;;;16.91;46.12;101932.44;5013550;28;20141;-45
2022/04/26 09:37:54;;;;;;;5.85;2.50;;;;;;;16.82;42.62;101937.06;5013592;28;20041;-44
2022/04/26 09:40:20;;;;;;;6.45;2.70;;;;;;;17.19;43.11;101939.28;5013682;28;20033;-46
2022/04/26 09:42:48;;;;;;;6.13;2.70;;;;;;;16.70;43.06;101949.88;5013649;28;20085;-45
2022/04/26 09:45:15;;;;;;;7.13;2.67;;;;;;;17.23;42.89;101946.50;5013507;28;20544;-45
2022/04/26 09:47:41;;;;;;;6.78;2.78;;;;;;;17.98;42.56;101957.44;5013624;28;20117;-45
2022/04/26 09:50:09;;;;;;;9.88;3.03;;;;;;;18.11;42.03;101947.91;5013840;28;20485;-45
2022/04/26 09:52:35;;;;;;;9.80;3.05;;;;;;;17.56;42.16;101946.44;5013191;28;20430;-45
2022/04/26 09:55:01;;;;;;;6.47;2.53;;;;;;;17.70;43.02;101954.28;5013572;28;20026;-46
2022/04/26 09:57:31;;;;;;;8.48;3.03;;;;;;;17.23;43.84;101956.16;5012455;28;20359;-49
2022/04/26 09:59:57;;;;;;;8.95;3.15;;;;;;;17.37;43.22;101942.06;5013547;28;20034;-46
2022/04/26 10:02:31;;;;;;;4.82;2.60;;;;;;;18.19;42.49;101950.28;5013250;28;20017;-45
2022/04/26 10:05:03;;;;;;;7.38;2.63;;;;;;;18.09;42.45;101949.91;5013508;28;20105;-46
2022/04/26 10:07:35;;;;;;;9.00;2.97;;;;;;;18.35;42.90;101956.84;5013538;28;20030;-46
2022/04/26 10:10:02;;;;;;;9.07;2.65;;;;;;;18.57;42.38;101958.09;5013527;28;20049;-45
2022/04/26 10:12:28;;;;;;;8.68;2.72;;;;;;;18.47;41.74;101953.34;5012586;28;20026;-47
2022/04/26 10:14:54;;;;;;;7.18;2.55;;;;;;;18.01;41.63;101969.25;5013025;28;20448;-46
2022/04/26 10:17:20;;;;;;;10.77;2.72;;;;;;;17.82;41.41;101963.09;5013125;28;20030;-47
2022/04/26 10:19:46;;;;;;;5.47;2.63;;;;;;;17.84;42.03;101973.34;5012637;28;20037;-45
2022/04/26 10:22:15;;;;;;;8.60;2.60;;;;;;;17.64;41.22;101971.56;5013504;28;20105;-41
2022/04/26 10:25:00;;;;;;;6.35;2.35;;;;;;;17.63;39.96;101967.34;5011455;28;20044;-42
2022/04/26 10:27:26;;;;;;;5.85;2.60;;;;;;;18.49;40.67;101964.38;5012733;28;20041;-41
2022/04/26 10:29:52;;;;;;;6.55;2.83;;;;;;;18.07;41.71;101963.22;5012123;28;20365;-45
2022/04/26 10:32:38;;;;;;;6.47;2.50;;;;;;;17.21;42.13;101973.84;5012452;28;20041;-46
2022/04/26 10:35:26;;;;;;;8.68;2.80;;;;;;;17.63;43.88;101977.00;4995634;28;20034;-46
2022/04/26 10:38:11;;;;;;;8.10;2.78;;;;;;;18.40;40.60;101968.28;5012568;28;20492;-45
2022/04/26 10:41:05;;;;;;;5.72;2.80;;;;;;;17.85;41.03;101977.59;5013612;28;20037;-46
2022/04/26 10:43:30;;;;;;;;;;;;;;;18.45;39.08;101965.03;5010973;28;20025;-41
2022/04/26 10:46:10;;;;;;;4.45;2.33;;;;;;;17.83;39.67;101969.94;5011747;28;19916;-46
2022/04/26 10:48:35;;;;;;;4.95;2.70;;;;;;;18.74;39.77;101971.53;5012833;28;20033;-46
2022/04/26 10:51:35;;;;;;;6.53;2.53;;;;;;;17.69;41.65;101976.16;5012378;28;20022;-45
2022/04/26 10:54:04;;;;;;;5.45;2.40;;;;;;;18.21;41.32;101987.50;5013155;28;20481;-45
2022/04/26 10:56:33;;;;;;;6.82;2.53;;;;;;;18.21;41.17;101984.88;5012942;28;20033;-46
2022/04/26 10:58:59;;;;;;;7.18;2.40;;;;;;;18.60;39.92;101978.63;5012769;28;20113;-45
2022/04/26 11:01:25;;;;;;;7.18;2.38;;;;;;;18.01;39.44;101985.78;5012719;28;20105;-46
2022/04/26 11:03:52;;;;;;;7.60;2.40;;;;;;;17.31;40.17;101992.50;5012806;28;20084;-46
2022/04/26 11:06:37;;;;;;;6.78;2.50;;;;;;;17.79;40.00;101993.06;5013230;28;20464;-46
2022/04/26 11:09:11;;;;;;;5.85;2.40;;;;;;;18.49;41.16;101993.19;5014302;28;20022;-47
2022/04/26 11:11:54;;;;;;;6.95;2.60;;;;;;;18.56;39.57;101987.09;5016602;28;20064;-46
2022/04/26 11:14:20;;;;;;;7.72;2.97;;;;;;;17.34;38.57;101994.72;5016173;28;20061;-46
2022/04/26 11:16:55;;;;;;;6.13;2.33;;;;;;;17.54;39.21;101997.31;5016400;28;20013;-46
2022/04/26 11:19:36;;;;;;;5.68;2.35;;;;;;;18.11;36.73;101993.16;5016277;28;20077;-46
2022/04/26 11:22:08;;;;;;;5.32;2.35;;;;;;;18.15;38.35;101996.97;5016507;28;20136;-45
2022/04/26 11:30:06;;;;;;;3.95;2.30;;;;;;;17.87;39.41;101993.88;5016562;28;20037;-46
2022/04/26 11:32:38;;;;;;;6.95;2.38;;;;;;;17.54;39.17;102003.34;5015771;28;20116;-45
2022/04/26 11:35:04;;;;;;;7.07;2.65;;;;;;;16.91;41.22;102010.78;5016019;28;20022;-43
2022/04/26 11:37:30;;;;;;;5.35;2.45;;;;;;;17.11;41.68;102014.22;5015001;28;20029;-41
2022/04/26 11:39:55;;;;;;;6.70;3.00;;;;;;;18.41;39.52;102011.78;5015016;28;20033;-47
2022/04/26 11:42:20;;;;;;;4.60;2.30;;;;;;;16.96;38.88;102002.34;4997455;28;20092;-45
2022/04/26 11:45:05;;;;;;;4.75;2.40;;;;;;;18.26;38.43;102016.44;5014254;28;20033;-46
2022/04/26 11:47:37;;;;;;;4.40;2.40;;;;;;;16.96;40.63;102013.59;5015090;28;20037;-44
2022/04/26 11:50:10;;;;;;;8.02;2.40;;;;;;;17.78;38.78;102011.56;5015219;28;20026;-45
2022/04/26 11:52:35;;;;;;;6.80;2.40;;;;;;;17.47;40.67;102014.81;4998136;28;20025;-46
2022/04/26 11:55:00;;;;;;;5.90;2.53;;;;;;;17.19;40.46;102015.81;5015740;28;20029;-46
2022/04/26 11:57:26;;;;;;;4.93;2.53;;;;;;;17.22;41.61;102012.00;5015324;28;20022;-45
2022/04/26 11:59:52;;;;;;;6.90;2.60;;;;;;;17.57;39.30;102023.84;5015438;28;20057;-46
2022/04/26 12:02:18;;;;;;;4.88;2.38;;;;;;;17.10;41.21;102015.22;5015397;28;20030;-46
2022/04/26 12:04:43;;;;;;;7.68;2.80;;;;;;;17.00;40.29;102021.84;5014842;28;20022;-45
2022/04/26 12:07:09;;;;;;;5.80;2.40;;;;;;;17.26;39.63;102014.03;5015480;28;20025;-48
2022/04/26 12:09:34;;;;;;;4.00;2.47;;;;;;;16.82;39.02;102025.81;4998086;28;20033;-46
2022/04/26 12:12:05;;;;;;;5.40;2.38;;;;;;;17.57;39.43;102021.22;5015444;28;20065;-45
2022/04/26 12:14:30;;;;;;;4.55;2.20;;;;;;;17.65;38.86;102024.66;5014954;28;20053;-46
2022/04/26 12:16:56;;;;;;;6.72;2.63;;;;;;;17.87;38.96;102028.66;5016059;28;20022;-46
2022/04/26 12:19:35;;;;;;;4.97;2.60;;;;;;;17.80;38.09;102030.47;5015366;28;20033;-51
2022/04/26 12:22:02;;;;;;;3.78;2.35;;;;;;;18.08;38.32;102026.78;5014710;28;20029;-46
2022/04/26 12:24:30;;;;;;;7.57;2.40;;;;;;;17.99;36.83;102032.25;4997531;28;20026;-53
2022/04/26 12:26:58;;;;;;;3.75;2.13;;;;;;;18.46;36.01;102032.06;5014719;28;20429;-46
2022/04/26 12:29:28;;;;;;;4.40;2.50;;;;;;;18.93;35.34;102035.25;5014904;28;20107;-45
2022/04/26 12:31:54;;;;;;;2.70;2.00;;;;;;;18.65;35.05;102038.22;5014949;28;20076;-45
2022/04/26 12:34:30;;;;;;;7.43;2.30;;;;;;;17.14;36.96;102031.28;5014608;28;20030;-47
2022/04/26 12:37:02;;;;;;;7.90;2.30;;;;;;;17.52;38.18;102044.56;4981071;28;20091;-45
2022/04/26 12:39:49;;;;;;;3.58;2.08;;;;;;;17.81;36.57;102034.72;5013761;28;20461;-45
2022/04/26 12:42:28;;;;;;;4.82;2.00;;;;;;;17.87;33.19;102051.41;5014521;28;20116;-45
2022/04/26 12:44:55;;;;;;;4.43;2.20;;;;;;;17.18;35.54;102052.63;4997058;28;20022;-46
2022/04/26 12:53:14;;;;;;;4.80;2.35;;;;;;;17.65;34.62;102035.09;5015120;28;20045;-45
2022/04/26 12:55:41;;;;;;;6.45;2.22;;;;;;;18.35;34.02;102028.28;5003706;28;20042;-43
2022/04/26 12:58:09;;;;;;;3.95;2.13;;;;;;;18.25;31.73;102036.59;5014051;28;20473;-51
2022/04/26 13:00:40;;;;;;;4.18;2.00;;;;;;;17.31;33.44;102029.09;5013599;28;20026;-44
2022/04/26 13:03:06;;;;;;;3.25;2.10;;;;;;;17.28;34.13;102037.34;5011961;28;20416;-40
2022/04/26 13:05:44;;;;;;;6.85;2.10;;;;;;;18.21;34.27;102038.03;4995320;28;20029;-47
2022/04/26 13:08:11;;;;;;;3.90;2.03;;;;;;;18.25;35.06;102035.78;5013614;28;20037;-46
2022/04/26 13:10:37;;;;;;;3.55;2.05;;;;;;;17.06;37.17;102032.31;5013102;28;20022;-45
2022/04/26 13:13:03;;;;;;;3.95;2.20;;;;;;;17.46;35.64;102034.91;5012271;28;20029;-44
2022/04/26 13:15:29;;;;;;;4.95;2.10;;;;;;;17.73;33.84;102021.81;5013418;28;20435;-45
2022/04/26 13:17:54;;;;;;;4.40;2.40;;;;;;;18.14;33.44;102026.75;5013042;28;20064;-44
2022/04/26 13:20:20;;;;;;;9.75;3.40;;;;;;;18.03;33.87;102028.19;5013325;28;20068;-45
2022/04/26 13:22:45;;;;;;;4.18;2.22;;;;;;;17.79;33.90;102021.03;5012162;28;20427;-45
2022/04/26 13:25:11;;;;;;;5.20;1.92;;;;;;;17.09;32.72;102024.06;5012056;28;20057;-45
2022/04/26 13:27:37;;;;;;;3.97;2.00;;;;;;;17.18;35.08;102032.50;5012853;28;20080;-45
2022/04/26 13:30:04;;;;;;;3.80;2.10;;;;;;;16.56;34.17;102021.31;5013414;28;20022;-47
2022/04/26 13:32:30;;;;;;;6.72;3.97;;;;;;;17.32;35.13;102018.44;5013129;28;20026;-46
2022/04/26 13:34:56;;;;;;;4.85;2.40;;;;;;;16.98;35.36;102022.06;5013755;28;20107;-46
2022/04/26 13:37:21;;;;;;;6.32;3.22;;;;;;;17.47;36.43;102023.47;5014223;28;20313;-47
2022/04/26 13:39:49;;;;;;;5.57;2.10;;;;;;;17.03;36.12;102024.88;5013458;28;20034;-46
2022/04/26 13:42:15;;;;;;;6.68;2.45;;;;;;;17.50;36.24;102020.44;4995427;28;20112;-45
2022/04/26 13:44:41;;;;;;;10.98;2.33;;;;;;;17.70;37.24;102020.41;4994505;28;20512;-45
2022/04/26 13:47:08;;;;;;;4.55;2.50;;;;;;;17.68;36.75;102017.19;5013638;28;20022;-46
2022/04/26 13:49:36;;;;;;;8.05;2.58;;;;;;;17.66;37.73;102021.03;5012063;28;20026;-45
2022/04/26 13:52:05;;;;;;;6.15;2.60;;;;;;;17.83;38.49;102014.38;5012694;28;20088;-46
2022/04/26 13:54:31;;;;;;;4.05;2.15;;;;;;;17.88;35.57;102019.81;5012379;28;20087;-45
2022/04/26 13:56:56;;;;;;;4.80;2.30;;;;;;;18.26;36.03;102014.63;5012987;28;20029;-45
2022/04/26 13:59:24;;;;;;;5.85;2.20;;;;;;;18.06;37.04;102013.91;4994747;28;20026;-46
2022/04/26 14:01:51;;;;;;;5.13;2.28;;;;;;;18.12;36.46;102013.06;5012580;28;20029;-46
2022/04/26 14:04:17;;;;;;;8.10;2.65;;;;;;;17.07;39.29;102010.41;4995674;28;20065;-46
2022/04/26 14:06:43;;;;;;;5.93;2.55;;;;;;;17.28;38.38;102017.22;5013695;28;20080;-48
2022/04/26 14:09:08;;;;;;;5.25;2.40;;;;;;;17.10;38.24;102009.19;5013362;28;20026;-46
2022/04/26 14:11:34;;;;;;;6.53;2.50;;;;;;;17.52;37.74;102013.22;5012741;28;20384;-46
2022/04/26 14:22:11;;;;;;;4.53;2.20;;;;;;;16.69;39.79;102007.50;5013745;28;20603;-45
2022/04/26 14:24:37;;;;;;;6.28;2.78;;;;;;;16.47;39.56;102010.25;5013875;28;20046;-45
2022/04/26 14:27:02;;;;;;;6.50;2.60;;;;;;;17.13;38.22;102008.78;5013152;28;20445;-46
2022/04/26 14:29:28;;;;;;;6.68;2.40;;;;;;;17.33;38.77;102014.03;5013958;28;20026;-45
2022/04/26 14:31:53;;;;;;;5.03;2.40;;;;;;;17.13;40.17;102016.63;5013470;28;20018;-47
2022/04/26 14:34:18;;;;;;;8.88;2.80;;;;;;;16.61;39.81;102010.28;5013772;28;20042;-47
2022/04/26 14:36:44;;;;;;;5.65;2.58;;;;;;;16.16;40.83;102022.97;5013136;28;20088;-46
2022/04/26 14:39:09;;;;;;;8.40;2.85;;;;;;;15.85;42.07;102020.78;5013274;28;20022;-45
2022/04/26 14:41:34;;;;;;;6.72;3.05;;;;;;;15.89;42.02;102014.22;5013451;28;20437;-46
2022/04/26 14:44:00;;;;;;;6.78;3.05;;;;;;;15.82;42.50;102016.75;5014887;28;20083;-45
2022/04/26 14:46:28;;;;;;;5.97;2.65;;;;;;;15.36;43.23;102017.22;5016731;28;20032;-46
2022/04/26 14:48:54;;;;;;;6.32;2.92;;;;;;;15.65;43.03;102018.84;5016242;28;20057;-44
2022/04/26 14:51:19;;;;;;;5.95;2.63;;;;;;;14.91;44.27;102026.25;5016008;28;20050;-46
2022/04/26 14:53:44;;;;;;;6.13;2.85;;;;;;;14.72;44.35;102031.03;5016649;28;20029;-44
2022/04/26 14:56:10;;;;;;;5.40;2.80;;;;;;;14.93;44.09;102027.63;5016560;28;20033;-45
2022/04/26 14:58:35;;;;;;;7.78;2.72;;;;;;;15.09;44.50;102024.00;5016627;28;20026;-46
2022/04/26 15:01:01;;;;;;;7.20;3.22;;;;;;;14.85;44.78;102028.59;4999456;28;20053;-45
2022/04/26 15:03:27;;;;;;;4.97;2.83;;;;;;;15.50;44.09;102026.75;5016614;28;20484;-46
2022/04/26 15:05:54;;;;;;;7.78;2.70;;;;;;;15.16;44.24;102030.06;5016384;28;20030;-45
2022/04/26 15:11:03;;;;;;;8.60;2.80;;;;;;;14.91;45.29;102024.44;5016357;28;20037;-45
2022/04/26 15:18:56;;;;;;;5.93;2.97;;;;;;;14.69;45.74;102033.19;5016283;28;20037;-46
2022/04/26 15:21:24;;;;;;;8.02;2.90;;;;;;;14.52;47.70;102037.81;5016168;28;20466;-46
2022/04/26 15:23:49;;;;;;;5.50;2.80;;;;;;;14.57;46.39;102028.47;5016233;28;20026;-46
2022/04/26 15:26:15;;;;;;;9.07;2.80;;;;;;;14.69;46.68;102026.19;5016123;28;20393;-45
2022/04/26 15:28:41;;;;;;;5.03;2.72;;;;;;;15.40;45.29;102028.09;5016129;28;20022;-45
2022/04/26 15:31:07;;;;;;;4.50;2.58;;;;;;;15.07;45.78;102023.38;5016163;28;20029;-47
2022/04/26 15:33:32;;;;;;;6.88;2.90;;;;;;;15.41;44.78;102025.28;5015770;28;20030;-45
2022/04/26 15:35:58;;;;;;;5.63;3.00;;;;;;;16.12;43.19;102035.59;5015777;28;20056;-46
2022/04/26 15:38:27;;;;;;;6.20;2.85;;;;;;;15.87;42.53;102030.03;4997695;28;20022;-46
2022/04/26 15:40:53;;;;;;;5.63;2.92;;;;;;;15.53;43.01;102038.59;5014461;28;20453;-44
2022/04/26 15:43:19;;;;;;;6.65;2.92;;;;;;;15.46;43.14;102035.94;5016230;28;20029;-47
2022/04/26 15:45:44;;;;;;;6.20;2.92;;;;;;;15.92;42.92;102042.50;5015618;28;20029;-48